createdAt,value
2018-05-27T00:00:33.314Z,17.70
2018-05-27T00:03:00.971Z,17.70
2018-05-27T00:05:29.372Z,17.50
2018-05-27T00:07:56.990Z,17.50
2018-05-27T00:10:25.412Z,17.40
2018-05-27T00:12:53.036Z,17.40
2018-05-27T00:15:20.669Z,17.40
2018-05-27T00:17:48.264Z,17.40
2018-05-27T00:20:16.688Z,17.30
2018-05-27T00:22:44.282Z,17.30
2018-05-27T00:25:11.915Z,17.30
2018-05-27T00:27:39.774Z,17.30
2018-05-27T00:30:07.934Z,17.20
2018-05-27T00:32:35.598Z,17.20
2018-05-27T00:35:03.237Z,17.20
2018-05-27T00:37:30.890Z,17.10
2018-05-27T00:40:00.092Z,17.10
2018-05-27T00:42:27.774Z,17.10
2018-05-27T00:44:56.225Z,17.00
2018-05-27T00:47:24.642Z,17.00
2018-05-27T00:49:52.274Z,17.00
2018-05-27T00:52:19.915Z,17.00
2018-05-27T00:54:48.345Z,16.90
2018-05-27T00:57:15.994Z,16.90
2018-05-27T00:59:43.615Z,16.90
2018-05-27T01:02:12.071Z,16.80
2018-05-27T01:04:39.667Z,16.80
2018-05-27T01:07:08.106Z,16.70
2018-05-27T01:09:35.739Z,16.70
2018-05-27T01:12:03.395Z,16.70
2018-05-27T01:14:31.018Z,16.60
2018-05-27T01:16:59.433Z,16.60
2018-05-27T01:19:27.051Z,16.60
2018-05-27T01:21:55.474Z,16.50
2018-05-27T01:24:23.075Z,16.50
2018-05-27T01:26:51.527Z,16.50
2018-05-27T01:29:19.117Z,16.50
2018-05-27T01:31:46.959Z,16.50
2018-05-27T01:34:14.680Z,16.50
2018-05-27T01:36:42.277Z,16.40
2018-05-27T01:39:10.108Z,16.40
2018-05-27T01:41:37.690Z,16.40
2018-05-27T01:44:05.353Z,16.40
2018-05-27T01:46:33.607Z,16.40
2018-05-27T01:49:01.236Z,16.30
2018-05-27T01:51:29.652Z,16.30
2018-05-27T01:53:57.271Z,16.30
2018-05-27T01:56:24.921Z,16.30
2018-05-27T01:58:52.516Z,16.30
2018-05-27T02:01:20.907Z,16.20
2018-05-27T02:03:48.492Z,16.20
2018-05-27T02:06:16.132Z,16.20
2018-05-27T02:08:43.718Z,16.20
2018-05-27T02:11:11.297Z,16.10
2018-05-27T02:13:38.919Z,16.10
2018-05-27T02:16:06.549Z,16.10
2018-05-27T02:18:34.702Z,16.00
2018-05-27T02:21:03.106Z,16.10
2018-05-27T02:23:30.691Z,16.10
2018-05-27T02:25:58.324Z,16.10
2018-05-27T02:28:26.742Z,16.10
2018-05-27T02:30:54.374Z,16.10
2018-05-27T02:33:22.051Z,16.10
2018-05-27T02:35:49.656Z,16.00
2018-05-27T02:38:17.241Z,16.00
2018-05-27T02:40:45.625Z,15.90
2018-05-27T02:43:13.949Z,15.90
2018-05-27T02:45:41.673Z,15.90
2018-05-27T02:48:09.294Z,15.80
2018-05-27T02:50:36.911Z,15.80
2018-05-27T02:53:05.281Z,15.70
2018-05-27T02:55:32.921Z,15.70
2018-05-27T02:58:00.543Z,15.70
2018-05-27T03:00:29.130Z,15.70
2018-05-27T03:02:56.747Z,15.60
2018-05-27T03:05:24.404Z,15.70
2018-05-27T03:07:52.780Z,15.70
2018-05-27T03:10:20.438Z,15.60
2018-05-27T03:12:48.153Z,15.60
2018-05-27T03:15:16.531Z,15.60
2018-05-27T03:17:44.160Z,15.60
2018-05-27T03:20:13.136Z,15.60
2018-05-27T03:22:40.748Z,15.60
2018-05-27T03:25:09.223Z,15.60
2018-05-27T03:27:37.367Z,15.60
2018-05-27T03:30:05.023Z,15.50
2018-05-27T03:32:32.666Z,15.60
2018-05-27T03:35:00.277Z,15.60
2018-05-27T03:37:27.855Z,15.60
2018-05-27T03:39:56.261Z,15.60
2018-05-27T03:42:23.883Z,15.60
2018-05-27T03:44:51.516Z,15.70
2018-05-27T03:47:19.100Z,15.60
2018-05-27T03:49:47.836Z,15.70
2018-05-27T03:52:15.509Z,15.70
2018-05-27T03:54:43.125Z,15.60
2018-05-27T03:57:11.513Z,15.70
2018-05-27T03:59:39.136Z,15.70
2018-05-27T04:02:06.766Z,15.80
2018-05-27T04:04:55.114Z,15.80
2018-05-27T04:07:34.698Z,15.90
2018-05-27T04:10:02.309Z,15.90
2018-05-27T04:12:30.837Z,15.90
2018-05-27T04:14:59.217Z,16.00
2018-05-27T04:17:26.838Z,15.90
2018-05-27T04:19:54.500Z,16.00
2018-05-27T04:22:22.172Z,16.10
2018-05-27T04:24:49.797Z,16.10
2018-05-27T04:27:17.457Z,16.10
2018-05-27T04:29:45.105Z,16.10
2018-05-27T04:32:12.733Z,16.10
2018-05-27T04:34:40.367Z,16.20
2018-05-27T04:37:08.690Z,16.30
2018-05-27T04:39:36.325Z,16.30
2018-05-27T04:42:03.911Z,16.40
2018-05-27T04:44:32.296Z,16.50
2018-05-27T04:46:59.923Z,16.40
2018-05-27T04:49:27.558Z,16.50
2018-05-27T04:51:55.192Z,16.60
2018-05-27T04:54:22.825Z,16.60
2018-05-27T04:56:51.185Z,16.80
2018-05-27T04:59:18.841Z,16.70
2018-05-27T05:01:46.485Z,16.80
2018-05-27T05:04:14.153Z,16.90
2018-05-27T05:06:41.780Z,16.90
2018-05-27T05:09:09.409Z,17.00
2018-05-27T05:11:37.876Z,17.20
2018-05-27T05:14:05.514Z,17.20
2018-05-27T05:16:33.108Z,17.30
2018-05-27T05:19:01.552Z,17.30
2018-05-27T05:21:29.165Z,17.30
2018-05-27T05:23:56.833Z,17.40
2018-05-27T05:26:24.421Z,17.40
2018-05-27T05:28:52.008Z,17.40
2018-05-27T05:31:19.662Z,17.50
2018-05-27T05:33:47.548Z,17.60
2018-05-27T05:36:15.966Z,17.80
2018-05-27T05:38:43.590Z,17.80
2018-05-27T05:41:12.006Z,18.00
2018-05-27T05:43:39.669Z,18.00
2018-05-27T05:46:07.310Z,18.20
2018-05-27T05:48:35.794Z,18.20
2018-05-27T05:51:03.526Z,18.40
2018-05-27T05:53:31.998Z,18.60
2018-05-27T05:55:59.632Z,18.60
2018-05-27T05:58:27.317Z,18.70
2018-05-27T06:00:56.414Z,18.80
2018-05-27T06:03:24.842Z,18.80
2018-05-27T06:05:52.522Z,19.00
2018-05-27T06:08:21.083Z,19.00
2018-05-27T06:10:48.690Z,19.10
2018-05-27T06:13:16.458Z,19.20
2018-05-27T06:15:44.182Z,19.40
2018-05-27T06:18:11.796Z,19.60
2018-05-27T06:20:40.189Z,19.90
2018-05-27T06:23:08.584Z,20.00
2018-05-27T06:25:36.258Z,19.90
2018-05-27T06:28:03.876Z,20.10
2018-05-27T06:30:31.542Z,20.10
2018-05-27T06:32:59.170Z,20.30
2018-05-27T06:35:26.788Z,20.40
2018-05-27T06:37:55.176Z,20.60
2018-05-27T06:40:22.802Z,20.70
2018-05-27T06:42:51.265Z,20.90
2018-05-27T06:45:18.869Z,20.90
2018-05-27T06:47:47.242Z,21.00
2018-05-27T06:50:15.222Z,21.10
2018-05-27T06:52:42.846Z,21.40
2018-05-27T06:55:11.282Z,21.40
2018-05-27T06:57:38.976Z,21.40
2018-05-27T07:00:07.870Z,21.60
2018-05-27T07:02:36.745Z,21.80
2018-05-27T07:05:04.448Z,21.80
2018-05-27T07:07:32.069Z,21.90
2018-05-27T07:09:59.671Z,22.00
2018-05-27T07:12:27.340Z,22.00
2018-05-27T07:14:54.937Z,22.20
2018-05-27T07:17:22.565Z,22.40
2018-05-27T07:19:50.962Z,22.50
2018-05-27T07:22:18.585Z,22.60
2018-05-27T07:24:46.200Z,22.80
2018-05-27T07:27:13.834Z,22.90
2018-05-27T07:29:41.499Z,23.00
2018-05-27T07:32:09.114Z,23.10
2018-05-27T07:34:37.555Z,23.40
2018-05-27T07:37:05.168Z,23.40
2018-05-27T07:39:32.817Z,23.60
2018-05-27T07:42:01.266Z,23.70
2018-05-27T07:44:29.542Z,23.60
2018-05-27T07:46:57.193Z,23.70
2018-05-27T07:49:24.980Z,23.70
2018-05-27T07:51:53.423Z,24.00
2018-05-27T07:54:21.760Z,23.90
2018-05-27T07:56:50.019Z,24.00
2018-05-27T07:59:18.428Z,24.30
2018-05-27T08:01:46.087Z,24.30
2018-05-27T08:04:14.008Z,24.30
2018-05-27T08:06:41.669Z,24.40
2018-05-27T08:09:09.294Z,24.30
2018-05-27T08:11:36.889Z,24.40
2018-05-27T08:14:04.553Z,24.50
2018-05-27T08:16:32.179Z,24.40
2018-05-27T08:18:59.793Z,24.50
2018-05-27T08:21:28.289Z,24.60
2018-05-27T08:23:55.907Z,24.70
2018-05-27T08:26:23.575Z,24.60
2018-05-27T08:28:51.189Z,24.70
2018-05-27T08:31:18.866Z,24.70
2018-05-27T08:33:46.460Z,24.80
2018-05-27T08:36:14.159Z,24.90
2018-05-27T08:41:33.288Z,25.10
2018-05-27T08:44:01.219Z,25.10
2018-05-27T08:46:28.915Z,25.20
2018-05-27T08:48:56.571Z,25.40
2018-05-27T08:51:24.205Z,25.60
2018-05-27T08:53:51.816Z,25.70
2018-05-27T08:56:19.442Z,25.80
2018-05-27T08:58:47.056Z,25.90
2018-05-27T09:01:15.493Z,26.10
2018-05-27T09:03:43.189Z,26.10
2018-05-27T09:06:10.792Z,26.20
2018-05-27T09:08:38.368Z,26.20
2018-05-27T09:11:06.616Z,26.40
2018-05-27T09:13:34.294Z,26.30
2018-05-27T09:16:02.058Z,26.50
2018-05-27T09:18:29.712Z,26.70
2018-05-27T09:20:57.346Z,26.80
2018-05-27T09:23:25.861Z,26.90
2018-05-27T09:25:53.604Z,26.80
2018-05-27T09:28:21.220Z,26.90
2018-05-27T09:30:48.860Z,27.00
2018-05-27T09:33:16.517Z,27.10
2018-05-27T09:38:47.037Z,26.90
2018-05-27T09:41:14.661Z,27.00
2018-05-27T09:46:34.070Z,27.00
2018-05-27T09:49:02.429Z,27.10
2018-05-27T09:51:30.855Z,27.00
2018-05-27T09:53:59.184Z,27.10
2018-05-27T09:56:27.543Z,27.00
2018-05-27T09:58:55.288Z,27.00
2018-05-27T10:01:23.483Z,26.90
2018-05-27T10:03:51.112Z,27.00
2018-05-27T10:06:18.702Z,27.10
2018-05-27T10:08:46.325Z,27.20
2018-05-27T10:11:13.940Z,27.20
2018-05-27T10:13:42.321Z,27.50
2018-05-27T10:19:01.760Z,27.40
2018-05-27T10:21:29.370Z,27.50
2018-05-27T10:23:57.732Z,27.60
2018-05-27T10:26:25.354Z,27.60
2018-05-27T10:28:52.986Z,27.70
2018-05-27T10:31:20.602Z,27.90
2018-05-27T10:34:00.229Z,27.90
2018-05-27T10:36:28.183Z,27.70
2018-05-27T10:38:55.792Z,27.60
2018-05-27T10:41:24.177Z,27.70
2018-05-27T10:43:52.583Z,27.70
2018-05-27T10:46:20.205Z,27.70
2018-05-27T10:48:48.638Z,27.80
2018-05-27T10:51:16.275Z,27.80
2018-05-27T10:53:44.457Z,27.80
2018-05-27T10:56:12.094Z,27.80
2018-05-27T10:58:40.470Z,28.00
2018-05-27T11:01:08.924Z,27.90
2018-05-27T11:03:38.012Z,27.80
2018-05-27T11:06:05.621Z,27.80
2018-05-27T11:08:33.268Z,27.80
2018-05-27T11:11:00.877Z,28.00
2018-05-27T11:13:28.536Z,28.10
2018-05-27T11:15:56.165Z,28.10
2018-05-27T11:18:23.747Z,28.10
2018-05-27T11:20:51.409Z,28.20
2018-05-27T11:23:19.035Z,28.40
2018-05-27T11:25:46.634Z,28.40
2018-05-27T11:28:14.290Z,28.30
2018-05-27T11:30:41.917Z,28.30
2018-05-27T11:33:09.563Z,28.30
2018-05-27T11:35:38.015Z,28.60
2018-05-27T11:38:06.423Z,28.50
2018-05-27T11:40:34.800Z,28.50
2018-05-27T11:43:03.197Z,28.50
2018-05-27T11:45:30.783Z,28.50
2018-05-27T11:47:58.455Z,28.70
2018-05-27T11:50:26.034Z,28.80
2018-05-27T11:52:53.689Z,28.70
2018-05-27T11:55:21.278Z,28.80
2018-05-27T11:57:49.660Z,29.10
2018-05-27T12:00:18.955Z,29.30
2018-05-27T12:02:47.375Z,29.70
2018-05-27T12:05:14.998Z,29.70
2018-05-27T12:07:43.347Z,30.40
2018-05-27T12:10:11.736Z,30.70
2018-05-27T12:12:39.361Z,30.70
2018-05-27T12:15:06.998Z,31.20
2018-05-27T12:17:34.597Z,31.60
2018-05-27T12:20:02.220Z,31.90
2018-05-27T12:22:29.819Z,32.30
2018-05-27T12:24:57.441Z,32.30
2018-05-27T12:27:25.045Z,32.00
2018-05-27T12:29:52.719Z,31.70
2018-05-27T12:32:20.360Z,31.20
2018-05-27T12:34:47.998Z,30.80
2018-05-27T12:37:15.623Z,30.20
2018-05-27T12:39:44.099Z,28.10
2018-05-27T12:42:13.088Z,27.40
2018-05-27T12:44:41.470Z,26.60
2018-05-27T12:47:09.926Z,25.90
2018-05-27T12:49:37.525Z,25.80
2018-05-27T12:52:05.195Z,25.30
2018-05-27T12:54:32.832Z,25.00
2018-05-27T12:57:01.236Z,25.00
2018-05-27T12:59:28.869Z,24.90
2018-05-27T13:01:57.245Z,25.10
2018-05-27T13:04:25.669Z,25.10
2018-05-27T13:06:53.315Z,25.10
2018-05-27T13:09:20.962Z,25.30
2018-05-27T13:11:48.558Z,25.60
2018-05-27T13:14:16.214Z,26.20
2018-05-27T13:16:43.974Z,26.80
2018-05-27T13:19:12.221Z,27.70
2018-05-27T13:21:39.852Z,27.60
2018-05-27T13:24:08.282Z,28.20
2018-05-27T13:26:35.899Z,28.20
2018-05-27T13:29:04.287Z,29.10
2018-05-27T13:31:33.558Z,29.60
2018-05-27T13:34:01.214Z,29.60
2018-05-27T13:36:28.825Z,30.50
2018-05-27T13:38:56.421Z,31.90
2018-05-27T13:41:24.054Z,33.60
2018-05-27T13:43:51.670Z,34.80
2018-05-27T13:46:20.071Z,34.00
2018-05-27T13:48:47.691Z,34.00
2018-05-27T13:51:15.354Z,33.00
2018-05-27T13:53:43.016Z,31.90
2018-05-27T13:56:11.382Z,30.40
2018-05-27T13:58:39.041Z,30.30
2018-05-27T14:01:06.789Z,29.40
2018-05-27T14:03:34.387Z,28.90
2018-05-27T14:06:02.478Z,28.40
2018-05-27T14:08:30.139Z,28.10
2018-05-27T14:10:57.746Z,27.70
2018-05-27T14:13:25.412Z,27.40
2018-05-27T14:15:53.046Z,27.10
2018-05-27T14:18:20.697Z,26.90
2018-05-27T14:20:48.328Z,26.80
2018-05-27T14:23:15.982Z,26.80
2018-05-27T14:25:43.958Z,26.90
2018-05-27T14:28:11.556Z,27.10
2018-05-27T14:30:39.242Z,27.70
2018-05-27T14:33:06.850Z,28.50
2018-05-27T14:35:35.247Z,30.30
2018-05-27T14:38:02.903Z,30.30
2018-05-27T14:40:30.566Z,30.70
2018-05-27T14:42:58.806Z,30.70
2018-05-27T14:45:27.234Z,30.60
2018-05-27T14:47:54.856Z,30.50
2018-05-27T14:50:23.291Z,29.60
2018-05-27T14:52:50.897Z,29.60
2018-05-27T14:55:19.299Z,29.00
2018-05-27T14:57:47.749Z,29.00
2018-05-27T15:00:16.111Z,29.10
2018-05-27T15:02:43.781Z,29.10
2018-05-27T15:05:12.184Z,28.80
2018-05-27T15:07:39.825Z,28.80
2018-05-27T15:10:08.013Z,29.00
2018-05-27T15:12:36.395Z,29.00
2018-05-27T15:15:04.805Z,29.10
2018-05-27T15:17:32.443Z,29.00
2018-05-27T15:20:01.045Z,28.60
2018-05-27T15:22:28.730Z,28.60
2018-05-27T15:24:56.373Z,28.30
2018-05-27T15:27:23.991Z,28.20
2018-05-27T15:29:53.022Z,28.00
2018-05-27T15:32:20.643Z,28.00
2018-05-27T15:34:49.075Z,27.80
2018-05-27T15:37:16.676Z,27.70
2018-05-27T15:39:45.711Z,27.70
2018-05-27T15:42:13.290Z,27.70
2018-05-27T15:44:40.919Z,27.70
2018-05-27T15:47:08.521Z,27.90
2018-05-27T15:49:36.137Z,28.10
2018-05-27T15:52:03.746Z,28.10
2018-05-27T15:54:31.367Z,28.10
2018-05-27T15:56:59.061Z,27.80
2018-05-27T15:59:26.686Z,27.50
2018-05-27T16:01:54.320Z,27.40
2018-05-27T16:04:22.965Z,27.10
2018-05-27T16:06:50.591Z,27.10
2018-05-27T16:09:18.246Z,27.10
2018-05-27T16:11:45.887Z,26.90
2018-05-27T16:14:14.271Z,27.30
2018-05-27T16:16:42.649Z,27.10
2018-05-27T16:19:11.056Z,27.20
2018-05-27T16:21:38.850Z,27.20
2018-05-27T16:24:06.498Z,27.20
2018-05-27T16:26:34.852Z,27.20
2018-05-27T16:29:02.505Z,27.50
2018-05-27T16:31:30.116Z,28.00
2018-05-27T16:33:57.751Z,28.50
2018-05-27T16:36:25.408Z,28.80
2018-05-27T16:38:53.615Z,28.50
2018-05-27T16:41:21.333Z,28.40
2018-05-27T16:43:49.594Z,28.30
2018-05-27T16:46:17.238Z,28.30
2018-05-27T16:48:45.774Z,27.90
2018-05-27T16:51:13.360Z,27.90
2018-05-27T16:53:41.172Z,27.50
2018-05-27T16:56:08.814Z,27.30
2018-05-27T16:58:36.502Z,27.10
2018-05-27T17:01:04.121Z,26.60
2018-05-27T17:03:31.754Z,26.50
2018-05-27T17:06:00.103Z,26.50
2018-05-27T17:08:27.740Z,26.40
2018-05-27T17:10:55.372Z,26.30
2018-05-27T17:13:22.955Z,26.10
2018-05-27T17:15:50.627Z,25.90
2018-05-27T17:18:18.242Z,25.70
2018-05-27T17:20:46.021Z,25.60
2018-05-27T17:23:14.434Z,25.20
2018-05-27T17:25:42.069Z,25.20
2018-05-27T17:28:10.512Z,24.90
2018-05-27T17:30:38.121Z,24.90
2018-05-27T17:33:06.485Z,24.60
2018-05-27T17:35:34.924Z,24.60
2018-05-27T17:38:02.507Z,24.50
2018-05-27T17:40:30.132Z,24.60
2018-05-27T17:42:57.729Z,24.70
2018-05-27T17:45:26.087Z,24.70
2018-05-27T17:50:47.742Z,24.60
2018-05-27T17:53:15.355Z,24.50
2018-05-27T17:55:42.948Z,24.30
2018-05-27T17:58:10.612Z,24.10
2018-05-27T18:00:38.251Z,23.90
2018-05-27T18:03:05.848Z,23.70
2018-05-27T18:05:33.480Z,23.40
2018-05-27T18:08:01.114Z,23.20
2018-05-27T18:10:28.769Z,23.10
2018-05-27T18:12:56.386Z,22.90
2018-05-27T18:15:25.095Z,22.80
2018-05-27T18:17:53.474Z,22.60
2018-05-27T18:20:21.077Z,22.60
2018-05-27T18:22:49.272Z,22.60
2018-05-27T18:25:16.889Z,22.50
2018-05-27T18:27:44.552Z,22.40
2018-05-27T18:30:12.184Z,22.40
2018-05-27T18:32:40.647Z,22.30
2018-05-27T18:35:09.792Z,22.20
2018-05-27T18:37:37.512Z,22.20
2018-05-27T18:40:05.887Z,22.00
2018-05-27T18:42:33.565Z,22.00
2018-05-27T18:45:02.675Z,21.90
2018-05-27T18:47:30.360Z,21.90
2018-05-27T18:49:58.005Z,21.80
2018-05-27T18:52:25.788Z,21.70
2018-05-27T18:54:53.666Z,21.50
2018-05-27T18:57:21.340Z,21.50
2018-05-27T18:59:50.012Z,21.40
2018-05-27T19:02:17.874Z,21.30
2018-05-27T19:04:45.550Z,21.30
2018-05-27T19:07:13.926Z,21.10
2018-05-27T19:09:41.663Z,21.10
2018-05-27T19:12:09.354Z,21.00
2018-05-27T19:14:37.204Z,20.90
2018-05-27T19:17:04.968Z,20.80
2018-05-27T19:19:32.673Z,20.80
2018-05-27T19:22:01.238Z,20.70
2018-05-27T19:24:30.615Z,20.60
2018-05-27T19:26:58.249Z,20.60
2018-05-27T19:32:16.670Z,20.50
2018-05-27T19:34:44.335Z,20.50
2018-05-27T19:37:12.879Z,20.40
2018-05-27T19:39:40.534Z,20.40
2018-05-27T19:42:08.434Z,20.40
2018-05-27T19:44:36.847Z,20.30
2018-05-27T19:47:04.583Z,20.30
2018-05-27T19:49:32.228Z,20.30
2018-05-27T19:52:00.097Z,20.30
2018-05-27T19:54:27.749Z,20.30
2018-05-27T19:56:55.646Z,20.30
2018-05-27T19:59:24.044Z,20.20
2018-05-27T20:01:52.443Z,20.10
2018-05-27T20:04:20.666Z,20.10
2018-05-27T20:06:48.311Z,20.10
2018-05-27T20:09:15.931Z,20.00
2018-05-27T20:11:43.721Z,20.00
2018-05-27T20:14:11.535Z,20.00
2018-05-27T20:16:39.989Z,19.90
2018-05-27T20:19:08.492Z,19.80
2018-05-27T20:21:37.426Z,19.80
2018-05-27T20:24:05.124Z,19.80
2018-05-27T20:26:33.520Z,19.70
2018-05-27T20:29:01.151Z,19.70
2018-05-27T20:31:29.035Z,19.70
2018-05-27T20:33:57.294Z,19.70
2018-05-27T20:36:25.037Z,19.60
2018-05-27T20:38:52.701Z,19.60
2018-05-27T20:41:20.353Z,19.60
2018-05-27T20:43:48.022Z,19.60
2018-05-27T20:46:15.633Z,19.50
2018-05-27T20:48:44.024Z,19.50
2018-05-27T20:51:11.694Z,19.50
2018-05-27T20:53:39.306Z,19.50
2018-05-27T20:56:07.336Z,19.50
2018-05-27T20:58:34.989Z,19.40
2018-05-27T21:01:02.644Z,19.40
2018-05-27T21:03:30.334Z,19.40
2018-05-27T21:05:58.313Z,19.40
2018-05-27T21:08:25.947Z,19.40
2018-05-27T21:10:53.642Z,19.40
2018-05-27T21:13:21.961Z,19.30
2018-05-27T21:15:50.372Z,19.30
2018-05-27T21:18:18.035Z,19.30
2018-05-27T21:20:47.287Z,19.30
2018-05-27T21:23:14.908Z,19.30
2018-05-27T21:25:42.571Z,19.30
2018-05-27T21:28:10.237Z,19.20
2018-05-27T21:30:37.816Z,19.30
2018-05-27T21:33:05.487Z,19.20
2018-05-27T21:35:34.004Z,19.20
2018-05-27T21:38:01.624Z,19.20
2018-05-27T21:40:29.243Z,19.10
2018-05-27T21:42:56.828Z,19.10
2018-05-27T21:45:24.450Z,19.10
2018-05-27T21:47:52.098Z,19.10
2018-05-27T21:50:19.717Z,19.10
2018-05-27T21:52:48.487Z,19.00
2018-05-27T21:55:17.517Z,19.00
2018-05-27T21:57:45.851Z,18.90
2018-05-27T22:00:13.435Z,18.90
2018-05-27T22:02:43.267Z,18.80
2018-05-27T22:05:11.745Z,18.80
2018-05-27T22:07:40.129Z,18.80
2018-05-27T22:10:09.229Z,18.70
2018-05-27T22:12:37.705Z,18.70
2018-05-27T22:15:06.269Z,18.70
2018-05-27T22:17:33.956Z,18.70
2018-05-27T22:20:02.182Z,18.60
2018-05-27T22:22:29.872Z,18.60
2018-05-27T22:24:58.089Z,18.60
2018-05-27T22:27:25.970Z,18.60
2018-05-27T22:29:53.634Z,18.60
2018-05-27T22:32:21.265Z,18.50
2018-05-27T22:34:48.913Z,18.50
2018-05-27T22:37:17.330Z,18.50
2018-05-27T22:39:44.970Z,18.50
2018-05-27T22:42:12.710Z,18.40
2018-05-27T22:44:40.395Z,18.40
2018-05-27T22:47:08.027Z,18.40
2018-05-27T22:49:36.536Z,18.40
2018-05-27T22:52:04.334Z,18.40
2018-05-27T22:54:32.918Z,18.40
2018-05-27T22:57:02.427Z,18.40
2018-05-27T22:59:30.477Z,18.40
2018-05-27T23:02:00.187Z,18.40
2018-05-27T23:04:27.850Z,18.40
2018-05-27T23:06:55.677Z,18.40
2018-05-27T23:09:24.702Z,18.30
2018-05-27T23:11:52.419Z,18.30
2018-05-27T23:14:21.778Z,18.30
2018-05-27T23:16:49.427Z,18.30
2018-05-27T23:19:17.848Z,18.30
2018-05-27T23:21:46.112Z,18.30
2018-05-27T23:24:13.878Z,18.20
2018-05-27T23:26:43.001Z,18.20
2018-05-27T23:29:11.475Z,18.20
2018-05-27T23:31:41.646Z,18.10
2018-05-27T23:34:09.272Z,18.10
2018-05-27T23:36:36.878Z,18.10
2018-05-27T23:39:04.737Z,18.10
2018-05-27T23:41:32.331Z,18.10
2018-05-27T23:43:59.963Z,18.10
2018-05-27T23:46:27.590Z,18.10
2018-05-27T23:48:55.222Z,18.10
2018-05-27T23:51:24.259Z,18.10
2018-05-27T23:53:51.909Z,18.00
2018-05-27T23:56:19.572Z,18.00
2018-05-27T23:58:47.193Z,18.00
